sensor_id;sensor_type;location;lat;lon;timestamp;P1;durP1;ratioP1;P2;durP2;ratioP2
67762;SDS011;54566;52.022;5.582;2022-12-24T02:11:50;48.58;;;5.35;;
67762;SDS011;54566;52.022;5.582;2022-12-24T02:14:20;56.72;;;6.40;;
67762;SDS011;54566;52.022;5.582;2022-12-24T02:31:03;43.45;;;4.63;;
67762;SDS011;54566;52.022;5.582;2022-12-24T02:37:02;59.70;;;6.03;;
67762;SDS011;54566;52.022;5.582;2022-12-24T02:42:43;42.53;;;5.00;;
67762;SDS011;54566;52.022;5.582;2022-12-24T02:45:14;46.30;;;5.07;;
67762;SDS011;54566;52.022;5.582;2022-12-24T02:48:06;42.47;;;5.35;;
67762;SDS011;54566;52.022;5.582;2022-12-24T02:51:47;50.22;;;5.07;;
67762;SDS011;54566;52.022;5.582;2022-12-24T02:54:04;47.80;;;5.53;;
67762;SDS011;54566;52.022;5.582;2022-12-24T02:56:53;35.72;;;4.28;;
67762;SDS011;54566;52.022;5.582;2022-12-24T02:59:41;50.20;;;4.57;;
67762;SDS011;54566;52.022;5.582;2022-12-24T03:05:20;39.35;;;4.45;;
67762;SDS011;54566;52.022;5.582;2022-12-24T03:07:58;40.08;;;4.75;;
67762;SDS011;54566;52.022;5.582;2022-12-24T03:10:32;44.25;;;4.50;;
67762;SDS011;54566;52.022;5.582;2022-12-24T03:13:05;52.25;;;5.30;;
67762;SDS011;54566;52.022;5.582;2022-12-24T03:15:41;45.33;;;4.63;;
67762;SDS011;54566;52.022;5.582;2022-12-24T03:18:17;51.17;;;5.25;;
67762;SDS011;54566;52.022;5.582;2022-12-24T03:20:48;53.78;;;4.93;;
67762;SDS011;54566;52.022;5.582;2022-12-24T03:23:20;39.03;;;4.30;;
67762;SDS011;54566;52.022;5.582;2022-12-24T03:28:27;42.22;;;5.05;;
67762;SDS011;54566;52.022;5.582;2022-12-24T03:30:59;58.55;;;5.72;;
67762;SDS011;54566;52.022;5.582;2022-12-24T03:33:28;54.25;;;6.28;;
67762;SDS011;54566;52.022;5.582;2022-12-24T03:35:57;44.58;;;4.82;;
67762;SDS011;54566;52.022;5.582;2022-12-24T03:38:29;48.70;;;4.45;;
67762;SDS011;54566;52.022;5.582;2022-12-24T03:41:01;49.40;;;5.82;;
67762;SDS011;54566;52.022;5.582;2022-12-24T03:43:27;58.58;;;5.85;;
67762;SDS011;54566;52.022;5.582;2022-12-24T03:45:54;52.90;;;5.63;;
67762;SDS011;54566;52.022;5.582;2022-12-24T03:48:20;45.45;;;5.50;;
67762;SDS011;54566;52.022;5.582;2022-12-24T03:50:55;50.83;;;6.47;;
67762;SDS011;54566;52.022;5.582;2022-12-24T03:53:21;61.63;;;6.65;;
67762;SDS011;54566;52.022;5.582;2022-12-24T03:56:12;54.95;;;5.30;;
67762;SDS011;54566;52.022;5.582;2022-12-24T04:01:20;59.53;;;7.20;;
67762;SDS011;54566;52.022;5.582;2022-12-24T04:03:55;58.92;;;5.95;;
67762;SDS011;54566;52.022;5.582;2022-12-24T04:06:23;56.10;;;6.15;;
67762;SDS011;54566;52.022;5.582;2022-12-24T04:09:05;58.28;;;6.63;;
67762;SDS011;54566;52.022;5.582;2022-12-24T04:11:40;55.75;;;5.90;;
67762;SDS011;54566;52.022;5.582;2022-12-24T04:14:14;53.45;;;6.38;;
67762;SDS011;54566;52.022;5.582;2022-12-24T04:16:42;59.25;;;5.10;;
67762;SDS011;54566;52.022;5.582;2022-12-24T04:19:16;67.03;;;6.55;;
67762;SDS011;54566;52.022;5.582;2022-12-24T04:21:50;58.85;;;6.50;;
67762;SDS011;54566;52.022;5.582;2022-12-24T04:24:18;56.92;;;6.18;;
67762;SDS011;54566;52.022;5.582;2022-12-24T04:26:55;53.40;;;6.22;;
67762;SDS011;54566;52.022;5.582;2022-12-24T04:29:21;68.03;;;6.03;;
67762;SDS011;54566;52.022;5.582;2022-12-24T04:31:48;61.33;;;6.32;;
67762;SDS011;54566;52.022;5.582;2022-12-24T04:34:17;43.22;;;5.95;;
67762;SDS011;54566;52.022;5.582;2022-12-24T04:36:48;51.05;;;5.90;;
67762;SDS011;54566;52.022;5.582;2022-12-24T04:39:17;56.35;;;6.43;;
67762;SDS011;54566;52.022;5.582;2022-12-24T04:41:43;47.28;;;5.95;;
67762;SDS011;54566;52.022;5.582;2022-12-24T04:44:10;50.47;;;5.57;;
67762;SDS011;54566;52.022;5.582;2022-12-24T04:46:36;58.42;;;6.65;;
67762;SDS011;54566;52.022;5.582;2022-12-24T04:51:37;42.85;;;4.93;;
67762;SDS011;54566;52.022;5.582;2022-12-24T04:54:06;41.47;;;5.30;;
67762;SDS011;54566;52.022;5.582;2022-12-24T04:56:32;54.85;;;6.20;;
67762;SDS011;54566;52.022;5.582;2022-12-24T04:59:01;56.22;;;5.78;;
67762;SDS011;54566;52.022;5.582;2022-12-24T05:01:29;52.58;;;5.95;;
67762;SDS011;54566;52.022;5.582;2022-12-24T05:03:56;53.60;;;6.22;;
67762;SDS011;54566;52.022;5.582;2022-12-24T05:06:23;51.42;;;6.07;;
67762;SDS011;54566;52.022;5.582;2022-12-24T05:08:53;46.28;;;6.18;;
67762;SDS011;54566;52.022;5.582;2022-12-24T05:11:24;45.13;;;5.25;;
67762;SDS011;54566;52.022;5.582;2022-12-24T05:13:58;60.65;;;8.30;;
67762;SDS011;54566;52.022;5.582;2022-12-24T05:19:40;45.42;;;5.70;;
67762;SDS011;54566;52.022;5.582;2022-12-24T05:22:27;66.25;;;6.22;;
67762;SDS011;54566;52.022;5.582;2022-12-24T05:25:17;55.92;;;6.18;;
67762;SDS011;54566;52.022;5.582;2022-12-24T05:28:05;58.72;;;6.57;;
67762;SDS011;54566;52.022;5.582;2022-12-24T05:30:34;51.95;;;6.63;;
67762;SDS011;54566;52.022;5.582;2022-12-24T05:33:26;58.60;;;6.03;;
67762;SDS011;54566;52.022;5.582;2022-12-24T05:36:03;63.33;;;6.32;;
67762;SDS011;54566;52.022;5.582;2022-12-24T05:38:36;55.08;;;5.45;;
67762;SDS011;54566;52.022;5.582;2022-12-24T05:41:09;62.92;;;6.90;;
67762;SDS011;54566;52.022;5.582;2022-12-24T05:43:59;62.47;;;5.97;;
67762;SDS011;54566;52.022;5.582;2022-12-24T05:47:26;54.90;;;5.82;;
67762;SDS011;54566;52.022;5.582;2022-12-24T05:53:17;65.15;;;7.03;;
67762;SDS011;54566;52.022;5.582;2022-12-24T05:59:11;80.75;;;6.53;;
67762;SDS011;54566;52.022;5.582;2022-12-24T06:01:42;72.40;;;7.55;;
67762;SDS011;54566;52.022;5.582;2022-12-24T10:05:17;47.22;;;6.97;;
67762;SDS011;54566;52.022;5.582;2022-12-24T10:10:26;48.92;;;7.00;;
67762;SDS011;54566;52.022;5.582;2022-12-24T12:41:53;40.67;;;5.07;;
67762;SDS011;54566;52.022;5.582;2022-12-24T12:56:53;28.80;;;4.10;;
67762;SDS011;54566;52.022;5.582;2022-12-24T12:59:25;35.50;;;4.40;;
67762;SDS011;54566;52.022;5.582;2022-12-24T16:38:41;49.08;;;6.72;;
67762;SDS011;54566;52.022;5.582;2022-12-24T16:41:31;45.47;;;6.97;;
67762;SDS011;54566;52.022;5.582;2022-12-24T16:44:21;39.83;;;8.20;;
67762;SDS011;54566;52.022;5.582;2022-12-24T16:46:55;42.15;;;6.55;;
67762;SDS011;54566;52.022;5.582;2022-12-24T16:49:25;47.85;;;7.38;;
67762;SDS011;54566;52.022;5.582;2022-12-24T16:51:54;48.50;;;7.95;;
67762;SDS011;54566;52.022;5.582;2022-12-24T16:54:33;40.15;;;7.30;;
67762;SDS011;54566;52.022;5.582;2022-12-24T16:57:26;40.92;;;7.95;;
67762;SDS011;54566;52.022;5.582;2022-12-24T16:59:57;49.38;;;8.27;;
67762;SDS011;54566;52.022;5.582;2022-12-24T17:02:45;50.35;;;8.18;;
67762;SDS011;54566;52.022;5.582;2022-12-24T17:05:24;53.78;;;8.88;;
67762;SDS011;54566;52.022;5.582;2022-12-24T17:14:19;42.78;;;9.25;;
67762;SDS011;54566;52.022;5.582;2022-12-24T17:32:36;74.60;;;13.70;;
67762;SDS011;54566;52.022;5.582;2022-12-24T18:29:11;49.28;;;11.30;;
67762;SDS011;54566;52.022;5.582;2022-12-24T18:31:50;47.50;;;11.50;;
67762;SDS011;54566;52.022;5.582;2022-12-24T18:34:36;63.65;;;12.07;;
67762;SDS011;54566;52.022;5.582;2022-12-24T18:58:03;51.25;;;14.45;;
67762;SDS011;54566;52.022;5.582;2022-12-24T19:03:33;55.33;;;13.30;;
67762;SDS011;54566;52.022;5.582;2022-12-24T19:06:02;45.00;;;13.30;;
67762;SDS011;54566;52.022;5.582;2022-12-24T19:08:28;53.92;;;13.98;;
67762;SDS011;54566;52.022;5.582;2022-12-24T20:20:49;46.40;;;14.27;;
67762;SDS011;54566;52.022;5.582;2022-12-24T20:23:29;63.85;;;16.13;;
67762;SDS011;54566;52.022;5.582;2022-12-24T20:29:33;66.18;;;15.70;;
67762;SDS011;54566;52.022;5.582;2022-12-24T20:35:20;59.97;;;14.30;;
67762;SDS011;54566;52.022;5.582;2022-12-24T20:37:48;57.70;;;13.90;;
67762;SDS011;54566;52.022;5.582;2022-12-24T20:43:44;53.42;;;13.63;;
67762;SDS011;54566;52.022;5.582;2022-12-24T20:46:44;47.92;;;12.25;;
67762;SDS011;54566;52.022;5.582;2022-12-24T20:52:48;47.50;;;13.23;;
67762;SDS011;54566;52.022;5.582;2022-12-24T20:55:34;52.08;;;13.02;;
67762;SDS011;54566;52.022;5.582;2022-12-24T20:58:11;52.47;;;12.40;;
67762;SDS011;54566;52.022;5.582;2022-12-24T21:00:54;52.08;;;12.25;;
67762;SDS011;54566;52.022;5.582;2022-12-24T21:03:26;47.03;;;13.02;;
67762;SDS011;54566;52.022;5.582;2022-12-24T21:08:37;52.85;;;11.43;;
67762;SDS011;54566;52.022;5.582;2022-12-24T21:11:08;55.60;;;12.77;;
67762;SDS011;54566;52.022;5.582;2022-12-24T21:14:07;52.60;;;12.93;;
67762;SDS011;54566;52.022;5.582;2022-12-24T21:19:58;51.35;;;13.13;;
67762;SDS011;54566;52.022;5.582;2022-12-24T21:22:48;52.95;;;11.30;;
67762;SDS011;54566;52.022;5.582;2022-12-24T21:28:47;53.13;;;13.02;;
67762;SDS011;54566;52.022;5.582;2022-12-24T21:37:18;50.08;;;13.27;;
67762;SDS011;54566;52.022;5.582;2022-12-24T21:40:13;59.78;;;12.52;;
67762;SDS011;54566;52.022;5.582;2022-12-24T21:43:11;50.70;;;12.37;;
67762;SDS011;54566;52.022;5.582;2022-12-24T21:45:39;50.05;;;10.88;;
67762;SDS011;54566;52.022;5.582;2022-12-24T21:48:08;54.88;;;12.02;;
67762;SDS011;54566;52.022;5.582;2022-12-24T21:54:11;51.70;;;10.18;;
67762;SDS011;54566;52.022;5.582;2022-12-24T21:57:01;49.85;;;11.43;;
67762;SDS011;54566;52.022;5.582;2022-12-24T21:59:53;47.92;;;10.65;;
67762;SDS011;54566;52.022;5.582;2022-12-24T22:02:21;56.05;;;12.70;;
67762;SDS011;54566;52.022;5.582;2022-12-24T22:17:58;57.80;;;12.82;;
67762;SDS011;54566;52.022;5.582;2022-12-24T22:20:45;55.40;;;12.10;;
67762;SDS011;54566;52.022;5.582;2022-12-24T22:32:42;67.47;;;11.07;;
67762;SDS011;54566;52.022;5.582;2022-12-24T22:35:11;52.78;;;11.18;;
67762;SDS011;54566;52.022;5.582;2022-12-24T22:37:39;54.05;;;11.40;;
67762;SDS011;54566;52.022;5.582;2022-12-24T22:40:19;55.33;;;11.93;;
67762;SDS011;54566;52.022;5.582;2022-12-24T22:42:53;66.25;;;15.60;;
67762;SDS011;54566;52.022;5.582;2022-12-24T22:45:22;47.65;;;12.18;;
67762;SDS011;54566;52.022;5.582;2022-12-24T22:47:51;55.30;;;11.38;;
67762;SDS011;54566;52.022;5.582;2022-12-24T22:50:23;48.20;;;11.07;;
67762;SDS011;54566;52.022;5.582;2022-12-24T22:52:52;64.15;;;11.05;;
67762;SDS011;54566;52.022;5.582;2022-12-24T22:55:25;50.63;;;10.30;;
67762;SDS011;54566;52.022;5.582;2022-12-24T22:57:53;55.53;;;10.77;;
67762;SDS011;54566;52.022;5.582;2022-12-24T23:00:40;52.03;;;10.60;;
67762;SDS011;54566;52.022;5.582;2022-12-24T23:03:22;57.05;;;11.73;;
67762;SDS011;54566;52.022;5.582;2022-12-24T23:05:55;52.88;;;11.65;;
67762;SDS011;54566;52.022;5.582;2022-12-24T23:08:22;61.25;;;11.65;;
67762;SDS011;54566;52.022;5.582;2022-12-24T23:10:52;47.45;;;10.50;;
67762;SDS011;54566;52.022;5.582;2022-12-24T23:13:20;57.72;;;10.98;;
67762;SDS011;54566;52.022;5.582;2022-12-24T23:16:05;44.72;;;10.10;;
67762;SDS011;54566;52.022;5.582;2022-12-24T23:18:37;50.10;;;11.40;;
67762;SDS011;54566;52.022;5.582;2022-12-24T23:21:06;65.80;;;11.27;;
67762;SDS011;54566;52.022;5.582;2022-12-24T23:30:25;53.88;;;10.18;;
67762;SDS011;54566;52.022;5.582;2022-12-24T23:33:13;52.80;;;9.65;;
67762;SDS011;54566;52.022;5.582;2022-12-24T23:35:56;57.67;;;10.88;;
67762;SDS011;54566;52.022;5.582;2022-12-24T23:38:31;67.13;;;11.07;;
67762;SDS011;54566;52.022;5.582;2022-12-24T23:41:28;57.60;;;11.32;;
67762;SDS011;54566;52.022;5.582;2022-12-24T23:46:35;49.97;;;10.32;;
67762;SDS011;54566;52.022;5.582;2022-12-24T23:49:02;40.08;;;9.48;;
67762;SDS011;54566;52.022;5.582;2022-12-24T23:51:41;61.75;;;11.50;;
67762;SDS011;54566;52.022;5.582;2022-12-24T23:54:15;47.00;;;9.82;;
67762;SDS011;54566;52.022;5.582;2022-12-24T23:56:44;57.13;;;10.77;;
